createdAt,value
2023-03-27T00:00:42.366Z,14.30
2023-03-27T00:03:08.309Z,16.95
2023-03-27T00:05:35.865Z,13.52
2023-03-27T00:06:45.701Z,10.32
2023-03-27T00:07:56.021Z,8.55
2023-03-27T00:09:08.555Z,6.90
2023-03-27T00:11:34.667Z,5.38
2023-03-27T00:14:00.068Z,4.33
2023-03-27T00:16:28.455Z,4.62
2023-03-27T00:18:55.758Z,5.93
2023-03-27T00:20:06.460Z,6.10
2023-03-27T00:22:30.574Z,7.30
2023-03-27T00:23:41.087Z,10.95
2023-03-27T00:24:51.488Z,12.67
2023-03-27T00:27:17.095Z,11.80
2023-03-27T00:28:29.647Z,10.72
2023-03-27T00:30:56.643Z,10.98
2023-03-27T00:33:23.290Z,10.77
2023-03-27T00:35:50.904Z,8.92
2023-03-27T00:38:18.206Z,10.77
2023-03-27T00:40:44.618Z,10.97
2023-03-27T00:44:45.015Z,9.82
2023-03-27T00:48:47.768Z,8.43
2023-03-27T00:51:16.253Z,8.15
2023-03-27T00:53:44.771Z,7.05
2023-03-27T00:56:15.975Z,6.62
2023-03-27T00:58:50.771Z,6.23
2023-03-27T01:01:19.761Z,5.35
2023-03-27T01:03:46.591Z,5.10
2023-03-27T01:04:57.282Z,4.30
2023-03-27T01:07:25.170Z,4.18
2023-03-27T01:08:37.583Z,4.15
2023-03-27T01:11:26.443Z,3.68
2023-03-27T01:14:21.956Z,3.60
2023-03-27T01:19:09.378Z,3.30
2023-03-27T01:22:15.454Z,3.53
2023-03-27T01:23:59.822Z,3.78
2023-03-27T01:25:16.387Z,3.77
2023-03-27T01:28:35.246Z,3.20
2023-03-27T01:33:01.717Z,4.55
2023-03-27T01:34:29.922Z,4.07
2023-03-27T01:37:29.145Z,3.97
2023-03-27T01:42:00.918Z,3.75
2023-03-27T01:44:51.189Z,3.93
2023-03-27T01:46:10.319Z,3.88
2023-03-27T01:47:28.686Z,4.10
2023-03-27T01:48:50.711Z,3.72
2023-03-27T01:50:23.204Z,4.13
2023-03-27T01:53:04.587Z,3.88
2023-03-27T01:55:51.082Z,3.65
2023-03-27T01:58:35.581Z,3.43
2023-03-27T02:01:11.208Z,3.13
2023-03-27T02:03:45.045Z,3.38
2023-03-27T02:06:28.188Z,4.15
2023-03-27T02:09:08.791Z,4.22
2023-03-27T02:13:03.991Z,4.03
2023-03-27T02:15:48.385Z,4.03
2023-03-27T02:17:01.966Z,4.18
2023-03-27T02:19:35.368Z,3.70
2023-03-27T02:20:52.029Z,3.70
2023-03-27T02:22:01.579Z,3.62
2023-03-27T02:24:27.785Z,4.05
2023-03-27T02:28:42.905Z,3.93
2023-03-27T02:30:11.670Z,4.05
2023-03-27T02:33:14.369Z,4.35
2023-03-27T02:36:19.771Z,4.60
2023-03-27T02:39:20.231Z,5.02
2023-03-27T02:42:29.334Z,7.45
2023-03-27T02:45:17.811Z,6.05
2023-03-27T02:49:10.297Z,6.05
2023-03-27T02:51:43.864Z,5.33
2023-03-27T02:52:57.311Z,5.08
2023-03-27T02:55:28.786Z,4.38
2023-03-27T02:56:43.934Z,4.90
2023-03-27T02:59:21.919Z,4.28
2023-03-27T03:01:54.349Z,3.87
2023-03-27T03:04:42.846Z,4.47
2023-03-27T03:05:57.805Z,3.87
2023-03-27T03:09:40.541Z,13.28
2023-03-27T03:10:48.135Z,25.32
2023-03-27T03:13:16.441Z,22.78
2023-03-27T03:15:50.605Z,16.78
2023-03-27T03:18:14.778Z,13.68
2023-03-27T03:20:42.373Z,9.18
2023-03-27T03:23:06.395Z,8.50
2023-03-27T03:25:31.383Z,9.20
2023-03-27T03:26:41.317Z,9.77
2023-03-27T03:29:15.690Z,9.97
2023-03-27T03:31:47.971Z,9.85
2023-03-27T03:34:16.929Z,11.05
2023-03-27T03:35:27.285Z,10.87
2023-03-27T03:37:54.289Z,10.32
2023-03-27T03:39:05.594Z,10.88
2023-03-27T03:41:30.183Z,10.22
2023-03-27T03:42:46.341Z,11.13
2023-03-27T03:45:10.998Z,10.62
2023-03-27T03:46:22.162Z,12.00
2023-03-27T03:47:34.362Z,12.32
2023-03-27T03:49:59.518Z,9.65
2023-03-27T03:52:25.609Z,8.70
2023-03-27T03:53:36.433Z,7.25
2023-03-27T03:56:02.472Z,6.62
2023-03-27T03:58:34.432Z,5.85
2023-03-27T03:59:41.181Z,6.43
2023-03-27T04:01:44.318Z,5.63
2023-03-27T04:02:55.267Z,6.17
2023-03-27T04:04:08.514Z,6.05
2023-03-27T04:07:09.362Z,10.82
2023-03-27T04:09:35.712Z,10.52
2023-03-27T04:10:52.890Z,9.97
2023-03-27T04:12:48.510Z,8.68
2023-03-27T04:15:22.983Z,7.40
2023-03-27T04:16:51.344Z,6.50
2023-03-27T04:19:19.990Z,4.93
2023-03-27T04:23:51.563Z,5.73
2023-03-27T04:26:18.310Z,5.48
2023-03-27T04:27:45.469Z,5.52
2023-03-27T04:30:16.065Z,4.90
2023-03-27T04:33:01.005Z,4.83
2023-03-27T04:34:55.154Z,4.92
2023-03-27T04:37:32.952Z,4.80
2023-03-27T04:40:49.593Z,4.42
2023-03-27T04:42:00.134Z,5.08
2023-03-27T04:43:11.248Z,10.08
2023-03-27T04:44:21.959Z,12.05
2023-03-27T04:46:41.444Z,6.87
2023-03-27T04:49:08.863Z,8.37
2023-03-27T04:50:21.056Z,8.97
2023-03-27T04:52:50.436Z,9.82
2023-03-27T04:55:18.768Z,10.12
2023-03-27T04:57:50.150Z,9.97
2023-03-27T04:58:59.713Z,11.42
2023-03-27T05:01:33.992Z,12.05
2023-03-27T05:04:04.245Z,9.10
2023-03-27T05:07:27.133Z,7.05
2023-03-27T05:11:02.358Z,9.20
2023-03-27T05:12:13.532Z,6.98
2023-03-27T05:14:41.392Z,8.65
2023-03-27T05:15:52.847Z,8.02
2023-03-27T05:18:17.407Z,10.73
2023-03-27T05:19:29.012Z,9.78
2023-03-27T05:21:57.678Z,6.63
2023-03-27T05:24:24.336Z,6.35
2023-03-27T05:25:34.595Z,5.20
2023-03-27T05:26:45.447Z,4.73
2023-03-27T05:29:09.670Z,4.55
2023-03-27T05:30:26.649Z,4.68
2023-03-27T05:32:55.046Z,5.43
2023-03-27T05:34:08.143Z,6.58
2023-03-27T05:35:23.223Z,5.10
2023-03-27T05:36:35.486Z,6.58
2023-03-27T05:39:04.843Z,5.23
2023-03-27T05:41:37.742Z,6.33
2023-03-27T05:44:06.219Z,6.85
2023-03-27T05:46:35.775Z,5.80
2023-03-27T05:47:58.743Z,4.88
2023-03-27T05:50:28.720Z,4.88
2023-03-27T05:51:40.415Z,5.95
2023-03-27T05:54:16.485Z,5.82
2023-03-27T05:56:50.089Z,4.75
2023-03-27T05:59:14.956Z,5.45
2023-03-27T06:00:26.702Z,4.90
2023-03-27T06:02:54.457Z,4.05
2023-03-27T06:05:20.088Z,4.92
2023-03-27T06:07:48.128Z,3.95
2023-03-27T06:10:20.891Z,3.35
2023-03-27T06:11:33.130Z,4.53
2023-03-27T06:12:42.946Z,3.73
2023-03-27T06:15:17.709Z,3.30
2023-03-27T06:17:48.458Z,3.25
2023-03-27T06:20:14.679Z,2.75
2023-03-27T06:21:25.197Z,3.08
2023-03-27T06:22:52.031Z,3.35
2023-03-27T06:25:21.040Z,2.62
2023-03-27T06:27:52.683Z,3.45
2023-03-27T06:29:07.930Z,3.00
2023-03-27T06:30:20.702Z,3.25
2023-03-27T06:31:33.169Z,3.05
2023-03-27T06:34:08.609Z,3.05
2023-03-27T06:35:21.876Z,2.90
2023-03-27T06:37:58.429Z,2.70
2023-03-27T06:40:31.574Z,2.80
2023-03-27T06:43:01.515Z,2.80
2023-03-27T06:45:33.404Z,2.50
2023-03-27T06:48:53.437Z,2.77
2023-03-27T06:51:20.706Z,2.90
2023-03-27T06:53:47.116Z,3.07
2023-03-27T06:56:14.878Z,3.23
2023-03-27T06:58:00.553Z,3.57
2023-03-27T06:59:09.959Z,3.23
2023-03-27T07:01:40.231Z,2.88
2023-03-27T07:03:10.063Z,3.15
2023-03-27T07:04:37.142Z,2.67
2023-03-27T07:07:12.776Z,2.97
2023-03-27T07:09:41.564Z,3.15
2023-03-27T07:12:11.680Z,3.22
2023-03-27T07:14:35.836Z,2.88
2023-03-27T07:17:00.212Z,2.57
2023-03-27T07:19:27.578Z,2.98
2023-03-27T07:21:53.854Z,2.88
2023-03-27T07:24:18.892Z,2.77
2023-03-27T07:25:40.831Z,3.00
2023-03-27T07:28:12.251Z,2.70
2023-03-27T07:30:37.639Z,3.05
2023-03-27T07:33:05.216Z,3.25
2023-03-27T07:35:31.061Z,2.95
2023-03-27T07:38:05.842Z,3.18
2023-03-27T07:40:51.891Z,3.48
2023-03-27T07:44:08.686Z,3.80
2023-03-27T07:49:40.357Z,3.48
2023-03-27T07:52:00.124Z,3.47
2023-03-27T07:53:09.872Z,3.47
2023-03-27T07:55:40.839Z,3.13
2023-03-27T07:58:07.550Z,4.20
2023-03-27T08:00:38.316Z,3.88
2023-03-27T08:03:13.891Z,3.55
2023-03-27T08:05:42.150Z,3.87
2023-03-27T08:08:04.389Z,3.25
2023-03-27T08:10:38.853Z,3.55
2023-03-27T08:13:08.908Z,3.33
2023-03-27T08:15:32.583Z,3.32
2023-03-27T08:19:12.335Z,3.30
2023-03-27T08:21:38.672Z,3.82
2023-03-27T08:24:05.176Z,3.82
2023-03-27T08:26:32.484Z,2.83
2023-03-27T08:29:02.140Z,2.93
2023-03-27T08:31:31.891Z,2.90
2023-03-27T08:33:59.100Z,3.12
2023-03-27T08:36:29.301Z,2.68
2023-03-27T08:38:55.421Z,2.53
2023-03-27T08:41:42.124Z,2.90
2023-03-27T08:44:14.348Z,2.03
2023-03-27T08:45:30.717Z,2.15
2023-03-27T08:48:24.690Z,3.40
2023-03-27T08:52:32.531Z,2.13
2023-03-27T08:56:34.148Z,1.90
2023-03-27T08:57:44.819Z,2.35
2023-03-27T09:00:24.569Z,2.00
2023-03-27T09:06:08.390Z,2.50
2023-03-27T09:07:35.218Z,2.42
2023-03-27T09:10:47.327Z,1.97
2023-03-27T09:12:42.161Z,2.30
2023-03-27T09:13:52.134Z,2.52
2023-03-27T09:16:50.129Z,2.03
2023-03-27T09:20:04.013Z,1.85
2023-03-27T09:21:17.800Z,2.48
2023-03-27T09:23:48.295Z,2.05
2023-03-27T09:25:01.966Z,2.35
2023-03-27T09:26:20.313Z,1.97
2023-03-27T09:28:52.307Z,2.15
2023-03-27T09:31:39.091Z,2.30
2023-03-27T09:34:12.496Z,2.40
2023-03-27T09:36:39.302Z,2.48
2023-03-27T09:39:12.896Z,2.45
2023-03-27T09:43:11.924Z,2.03
2023-03-27T09:47:01.011Z,2.12
2023-03-27T09:50:46.621Z,2.18
2023-03-27T09:52:00.617Z,2.25
2023-03-27T09:54:53.913Z,2.07
2023-03-27T09:57:48.467Z,1.85
2023-03-27T09:58:59.113Z,1.60
2023-03-27T10:01:54.105Z,2.13
2023-03-27T10:04:25.807Z,1.93
2023-03-27T10:07:02.184Z,2.17
2023-03-27T10:10:45.212Z,2.03
2023-03-27T10:13:36.608Z,4.60
2023-03-27T10:14:50.631Z,3.00
2023-03-27T10:17:31.008Z,1.72
2023-03-27T10:18:48.779Z,1.65
2023-03-27T10:21:31.041Z,1.47
2023-03-27T10:22:57.023Z,1.82
2023-03-27T10:25:42.262Z,1.53
2023-03-27T10:28:17.867Z,1.57
2023-03-27T10:29:47.374Z,1.55
2023-03-27T10:31:08.334Z,1.85
2023-03-27T10:32:59.563Z,1.92
2023-03-27T10:34:37.552Z,1.48
2023-03-27T10:36:08.137Z,1.33
2023-03-27T10:37:28.680Z,1.88
2023-03-27T10:40:20.411Z,1.87
2023-03-27T10:41:37.427Z,1.32
2023-03-27T10:42:49.572Z,1.35
2023-03-27T10:45:17.221Z,1.30
2023-03-27T10:46:30.820Z,1.55
2023-03-27T10:47:54.481Z,1.32
2023-03-27T10:49:24.286Z,1.43
2023-03-27T10:51:59.664Z,1.35
2023-03-27T10:53:20.500Z,1.33
2023-03-27T10:56:18.385Z,1.50
2023-03-27T11:00:19.344Z,1.70
2023-03-27T11:01:46.799Z,1.70
2023-03-27T11:04:50.551Z,1.75
2023-03-27T11:06:04.367Z,1.50
2023-03-27T11:10:33.561Z,2.30
2023-03-27T11:14:33.453Z,1.33
2023-03-27T11:17:14.428Z,1.38
2023-03-27T11:18:29.208Z,1.47
2023-03-27T11:21:15.932Z,1.85
2023-03-27T11:23:59.540Z,1.40
2023-03-27T11:25:23.200Z,1.07
2023-03-27T11:28:27.308Z,1.08
2023-03-27T11:31:13.191Z,1.10
2023-03-27T11:34:08.050Z,0.78
2023-03-27T11:35:25.282Z,1.12
2023-03-27T11:39:40.310Z,1.28
2023-03-27T11:40:49.802Z,1.33
2023-03-27T11:43:23.021Z,1.10
2023-03-27T11:46:24.579Z,0.95
2023-03-27T11:49:39.755Z,1.15
2023-03-27T11:52:33.922Z,1.22
2023-03-27T11:55:27.123Z,1.10
2023-03-27T12:00:00.269Z,1.18
2023-03-27T12:02:41.853Z,1.28
2023-03-27T12:05:42.372Z,0.83
2023-03-27T12:07:09.822Z,1.25
2023-03-27T12:08:50.350Z,1.07
2023-03-27T12:11:37.202Z,1.07
2023-03-27T12:12:54.227Z,1.30
2023-03-27T12:19:02.475Z,1.20
2023-03-27T12:20:28.631Z,1.70
2023-03-27T12:23:49.731Z,0.90
2023-03-27T12:26:55.357Z,1.00
2023-03-27T12:29:23.844Z,1.30
2023-03-27T12:32:20.884Z,1.08
2023-03-27T12:35:02.868Z,0.82
2023-03-27T12:37:42.687Z,1.05
2023-03-27T12:41:43.453Z,1.15
2023-03-27T12:43:27.299Z,1.18
2023-03-27T12:46:29.039Z,1.40
2023-03-27T12:48:58.363Z,1.10
2023-03-27T12:50:20.595Z,1.70
2023-03-27T12:52:56.251Z,1.33
2023-03-27T12:54:31.855Z,1.47
2023-03-27T12:57:16.857Z,1.90
2023-03-27T13:00:04.345Z,1.88
2023-03-27T13:01:24.876Z,1.57
2023-03-27T13:05:47.666Z,1.80
2023-03-27T13:08:48.297Z,1.65
2023-03-27T13:10:23.936Z,1.38
2023-03-27T13:13:04.995Z,1.92
2023-03-27T13:16:16.296Z,1.83
2023-03-27T13:19:27.819Z,2.57
2023-03-27T13:22:12.483Z,2.00
2023-03-27T13:24:51.901Z,1.50
2023-03-27T13:27:54.795Z,1.20
2023-03-27T13:30:52.206Z,1.48
2023-03-27T13:34:26.106Z,1.20
2023-03-27T13:37:20.686Z,1.40
2023-03-27T13:40:21.279Z,1.27
2023-03-27T13:43:21.927Z,1.42
2023-03-27T13:44:39.460Z,1.50
2023-03-27T13:45:58.247Z,1.25
2023-03-27T13:49:59.239Z,1.73
2023-03-27T13:52:58.500Z,1.12
2023-03-27T13:56:28.000Z,0.95
2023-03-27T13:59:39.480Z,0.98
2023-03-27T14:01:00.858Z,1.40
2023-03-27T14:03:59.761Z,1.20
2023-03-27T14:05:21.657Z,1.42
2023-03-27T14:06:38.034Z,1.20
2023-03-27T14:08:07.483Z,1.38
2023-03-27T14:11:04.979Z,1.30
2023-03-27T14:14:00.722Z,1.35
2023-03-27T14:15:39.325Z,2.15
2023-03-27T14:18:37.236Z,1.57
2023-03-27T14:22:46.096Z,1.35
2023-03-27T14:24:07.083Z,1.07
2023-03-27T14:25:38.283Z,1.35
2023-03-27T14:29:02.946Z,1.53
2023-03-27T14:31:42.377Z,1.15
2023-03-27T14:33:10.508Z,1.35
2023-03-27T14:35:45.144Z,1.47
2023-03-27T14:38:19.684Z,2.07
2023-03-27T14:39:30.655Z,2.08
2023-03-27T14:42:03.466Z,3.17
2023-03-27T14:44:32.967Z,1.75
2023-03-27T14:47:03.370Z,1.75
2023-03-27T14:49:53.162Z,1.65
2023-03-27T14:52:37.254Z,1.70
2023-03-27T14:55:09.288Z,1.18
2023-03-27T14:57:50.129Z,2.08
2023-03-27T15:00:24.169Z,2.00
2023-03-27T15:01:35.632Z,1.37
2023-03-27T15:02:48.091Z,1.68
2023-03-27T15:05:17.659Z,3.03
2023-03-27T15:06:29.722Z,1.93
2023-03-27T15:07:43.270Z,2.62
2023-03-27T15:10:27.462Z,2.95
2023-03-27T15:11:56.785Z,4.00
2023-03-27T15:13:11.442Z,3.10
2023-03-27T15:14:31.707Z,3.00
2023-03-27T15:17:10.142Z,3.07
2023-03-27T15:20:02.878Z,3.42
2023-03-27T15:22:45.686Z,3.55
2023-03-27T15:24:03.196Z,4.45
2023-03-27T15:25:17.101Z,4.15
2023-03-27T15:26:34.432Z,3.10
2023-03-27T15:29:19.486Z,3.95
2023-03-27T15:31:52.727Z,4.28
2023-03-27T15:34:35.794Z,5.45
2023-03-27T15:37:10.692Z,5.72
2023-03-27T15:40:04.846Z,5.22
2023-03-27T15:42:57.996Z,5.87
2023-03-27T15:46:03.832Z,7.32
2023-03-27T15:48:51.434Z,6.62
2023-03-27T15:51:35.062Z,8.17
2023-03-27T15:54:07.959Z,8.52
2023-03-27T15:55:39.263Z,9.08
2023-03-27T15:58:16.360Z,9.05
2023-03-27T16:00:47.945Z,9.07
2023-03-27T16:03:23.729Z,12.60
2023-03-27T16:06:05.293Z,35.10
2023-03-27T16:08:37.959Z,34.22
2023-03-27T16:10:04.710Z,15.00
2023-03-27T16:12:50.254Z,12.58
2023-03-27T16:15:35.425Z,9.65
2023-03-27T16:18:04.541Z,8.55
2023-03-27T16:19:14.192Z,7.57
2023-03-27T16:21:54.932Z,6.60
2023-03-27T16:23:06.280Z,6.80
2023-03-27T16:24:15.419Z,5.97
2023-03-27T16:26:46.614Z,5.70
2023-03-27T16:27:55.518Z,6.25
2023-03-27T16:29:05.769Z,6.15
2023-03-27T16:31:41.347Z,6.28
2023-03-27T16:32:51.433Z,5.85
2023-03-27T16:35:17.920Z,6.15
2023-03-27T16:37:46.266Z,6.97
2023-03-27T16:38:55.966Z,7.05
2023-03-27T16:41:22.622Z,6.12
2023-03-27T16:43:48.342Z,7.47
2023-03-27T16:44:56.924Z,5.93
2023-03-27T16:46:07.825Z,7.02
2023-03-27T16:47:18.400Z,6.53
2023-03-27T16:49:53.429Z,6.82
2023-03-27T16:52:14.890Z,4.60
2023-03-27T16:53:24.848Z,4.63
2023-03-27T16:55:50.644Z,4.45
2023-03-27T16:58:16.163Z,4.48
2023-03-27T17:00:43.128Z,4.73
2023-03-27T17:03:06.931Z,4.25
2023-03-27T17:04:16.830Z,4.30
2023-03-27T17:06:42.344Z,3.98
2023-03-27T17:09:11.348Z,4.53
2023-03-27T17:11:37.472Z,4.68
2023-03-27T17:14:01.862Z,4.62
2023-03-27T17:15:11.370Z,4.27
2023-03-27T17:17:37.748Z,4.95
2023-03-27T17:20:01.781Z,5.15
2023-03-27T17:21:11.190Z,5.73
2023-03-27T17:22:20.182Z,5.67
2023-03-27T17:24:56.274Z,5.95
2023-03-27T17:26:02.030Z,6.55
2023-03-27T17:28:25.675Z,6.97
2023-03-27T17:31:03.276Z,7.58
2023-03-27T17:32:01.602Z,7.20
2023-03-27T17:33:11.713Z,8.40
2023-03-27T17:34:20.413Z,8.70
2023-03-27T17:36:52.548Z,9.42
2023-03-27T17:39:12.593Z,8.60
2023-03-27T17:41:37.749Z,8.33
2023-03-27T17:42:46.506Z,8.28
2023-03-27T17:43:58.346Z,9.07
2023-03-27T17:46:23.236Z,8.07
2023-03-27T17:48:49.555Z,7.73
2023-03-27T17:51:13.671Z,8.00
2023-03-27T17:52:23.315Z,7.05
2023-03-27T17:54:49.062Z,8.00
2023-03-27T17:55:59.296Z,7.20
2023-03-27T17:58:25.720Z,6.07
2023-03-27T18:00:50.825Z,5.87
2023-03-27T18:03:15.800Z,5.50
2023-03-27T18:04:25.420Z,6.17
2023-03-27T18:05:42.746Z,8.78
2023-03-27T18:08:10.010Z,7.80
2023-03-27T18:09:18.994Z,5.97
2023-03-27T18:11:44.389Z,5.38
2023-03-27T18:12:53.379Z,5.18
2023-03-27T18:15:17.383Z,4.27
2023-03-27T18:16:27.578Z,5.43
2023-03-27T18:17:37.379Z,5.47
2023-03-27T18:18:47.124Z,4.55
2023-03-27T18:19:56.848Z,5.30
2023-03-27T18:21:06.203Z,4.43
2023-03-27T18:23:34.248Z,4.35
2023-03-27T18:25:58.555Z,3.58
2023-03-27T18:27:09.071Z,4.13
2023-03-27T18:28:17.685Z,3.50
2023-03-27T18:30:43.537Z,3.48
2023-03-27T18:33:01.987Z,3.57
2023-03-27T18:34:11.552Z,3.35
2023-03-27T18:36:35.358Z,3.82
2023-03-27T18:39:00.911Z,2.75
2023-03-27T18:41:28.207Z,3.16
2023-03-27T18:43:55.272Z,4.22
2023-03-27T18:45:08.987Z,3.72
2023-03-27T18:47:36.170Z,3.05
2023-03-27T18:50:05.075Z,2.40
2023-03-27T18:52:23.646Z,2.73
2023-03-27T18:54:48.560Z,3.04
2023-03-27T18:57:06.577Z,3.63
2023-03-27T18:58:16.671Z,3.07
2023-03-27T18:59:26.576Z,3.38
2023-03-27T19:00:36.831Z,3.58
2023-03-27T19:03:00.988Z,3.50
2023-03-27T19:04:11.258Z,3.92
2023-03-27T19:05:20.257Z,2.77
2023-03-27T19:06:31.780Z,2.97
2023-03-27T19:07:44.650Z,3.50
2023-03-27T19:08:52.404Z,3.30
2023-03-27T19:11:16.861Z,4.43
2023-03-27T19:12:43.756Z,2.70
2023-03-27T19:15:31.524Z,3.27
2023-03-27T19:17:31.726Z,3.05
2023-03-27T19:19:23.448Z,2.90
2023-03-27T19:21:52.613Z,3.68
2023-03-27T19:24:41.391Z,3.63
2023-03-27T19:27:07.689Z,3.62
2023-03-27T19:29:37.271Z,3.17
2023-03-27T19:32:03.612Z,3.20
2023-03-27T19:34:40.135Z,3.62
2023-03-27T19:37:13.354Z,3.65
2023-03-27T19:39:39.227Z,3.03
2023-03-27T19:42:04.712Z,3.45
2023-03-27T19:43:17.787Z,4.22
2023-03-27T19:46:15.597Z,3.53
2023-03-27T19:48:30.169Z,3.43
2023-03-27T19:49:43.252Z,3.75
2023-03-27T19:52:18.766Z,3.53
2023-03-27T19:54:43.586Z,3.65
2023-03-27T19:57:07.354Z,2.97
2023-03-27T19:58:16.811Z,3.50
2023-03-27T20:00:43.583Z,3.68
2023-03-27T20:03:09.681Z,3.80
2023-03-27T20:05:33.476Z,3.82
2023-03-27T20:06:44.695Z,3.78
2023-03-27T20:09:09.640Z,2.92
2023-03-27T20:10:21.273Z,3.35
2023-03-27T20:12:45.631Z,3.13
2023-03-27T20:13:57.068Z,4.07
2023-03-27T20:16:26.634Z,4.05
2023-03-27T20:18:57.566Z,4.12
2023-03-27T20:20:09.591Z,4.72
2023-03-27T20:21:19.185Z,4.38
2023-03-27T20:22:29.778Z,5.23
2023-03-27T20:24:57.613Z,4.92
2023-03-27T20:27:24.231Z,5.12
2023-03-27T20:29:49.652Z,5.05
2023-03-27T20:32:19.971Z,6.18
2023-03-27T20:34:45.811Z,5.62
2023-03-27T20:37:14.551Z,5.93
2023-03-27T20:38:27.566Z,5.87
2023-03-27T20:40:55.935Z,5.45
2023-03-27T20:43:27.046Z,5.62
2023-03-27T20:44:35.721Z,5.62
2023-03-27T20:47:03.794Z,6.10
2023-03-27T20:48:14.789Z,5.62
2023-03-27T20:50:46.170Z,5.60
2023-03-27T20:52:00.239Z,5.45
2023-03-27T20:54:29.132Z,4.58
2023-03-27T20:56:54.362Z,4.07
2023-03-27T20:58:06.015Z,4.02
2023-03-27T20:59:15.228Z,4.85
2023-03-27T21:00:24.160Z,3.98
2023-03-27T21:01:33.804Z,4.05
2023-03-27T21:04:00.186Z,3.05
2023-03-27T21:06:25.941Z,3.03
2023-03-27T21:07:36.895Z,3.27
2023-03-27T21:10:08.471Z,3.30
2023-03-27T21:11:19.628Z,3.65
2023-03-27T21:12:29.439Z,3.12
2023-03-27T21:14:53.928Z,3.47
2023-03-27T21:16:04.376Z,3.17
2023-03-27T21:18:29.480Z,2.83
2023-03-27T21:19:38.042Z,3.55
2023-03-27T21:23:11.829Z,2.98
2023-03-27T21:24:21.726Z,3.03
2023-03-27T21:25:31.774Z,2.93
2023-03-27T21:27:58.620Z,3.13
2023-03-27T21:30:46.540Z,3.13
2023-03-27T21:31:39.602Z,2.92
2023-03-27T21:32:52.320Z,2.97
2023-03-27T21:35:16.109Z,3.30
2023-03-27T21:37:42.503Z,3.35
2023-03-27T21:40:08.602Z,3.27
2023-03-27T21:42:34.544Z,3.28
2023-03-27T21:44:58.799Z,3.18
2023-03-27T21:47:29.547Z,3.78
2023-03-27T21:48:35.908Z,3.35
2023-03-27T21:49:44.897Z,3.22
2023-03-27T21:52:16.217Z,3.23
2023-03-27T21:53:25.488Z,3.27
2023-03-27T21:55:50.295Z,3.80
2023-03-27T21:56:59.096Z,3.00
2023-03-27T21:58:08.943Z,4.78
2023-03-27T22:00:34.439Z,4.00
2023-03-27T22:01:44.289Z,4.35
2023-03-27T22:02:53.925Z,4.60
2023-03-27T22:05:18.832Z,4.47
2023-03-27T22:07:44.927Z,4.90
2023-03-27T22:08:57.243Z,4.88
2023-03-27T22:11:23.665Z,5.62
2023-03-27T22:12:37.641Z,5.53
2023-03-27T22:13:48.628Z,5.82
2023-03-27T22:16:16.659Z,5.40
2023-03-27T22:17:25.581Z,5.52
2023-03-27T22:18:34.428Z,5.83
2023-03-27T22:19:45.131Z,5.62
2023-03-27T22:23:18.820Z,5.40
2023-03-27T22:25:52.599Z,6.28
2023-03-27T22:28:17.324Z,5.18
2023-03-27T22:30:41.273Z,5.68
2023-03-27T22:33:06.313Z,6.23
2023-03-27T22:34:16.334Z,5.73
2023-03-27T22:35:27.014Z,5.57
2023-03-27T22:37:46.533Z,5.55
2023-03-27T22:41:22.723Z,6.28
2023-03-27T22:43:49.897Z,5.50
2023-03-27T22:46:16.934Z,5.52
2023-03-27T22:47:27.368Z,5.70
2023-03-27T22:48:36.354Z,6.00
2023-03-27T22:49:45.736Z,5.60
2023-03-27T22:51:00.325Z,5.50
2023-03-27T22:52:10.522Z,5.40
2023-03-27T22:53:20.244Z,5.60
2023-03-27T22:57:04.340Z,5.08
2023-03-27T22:58:13.302Z,5.53
2023-03-27T23:00:37.484Z,4.50
2023-03-27T23:01:46.781Z,4.73
2023-03-27T23:02:55.672Z,4.97
2023-03-27T23:04:05.659Z,4.45
2023-03-27T23:06:30.489Z,4.73
2023-03-27T23:08:54.041Z,4.63
2023-03-27T23:11:20.120Z,4.98
2023-03-27T23:12:29.884Z,5.03
2023-03-27T23:13:39.621Z,5.25
2023-03-27T23:16:04.412Z,4.47
2023-03-27T23:18:29.239Z,4.67
2023-03-27T23:19:39.318Z,5.25
2023-03-27T23:22:07.309Z,5.17
2023-03-27T23:24:34.121Z,4.87
2023-03-27T23:25:43.807Z,5.13
2023-03-27T23:26:53.621Z,5.03
2023-03-27T23:28:03.272Z,4.63
2023-03-27T23:29:12.508Z,4.95
2023-03-27T23:30:22.949Z,4.90
2023-03-27T23:31:31.533Z,4.92
2023-03-27T23:33:55.480Z,5.17
2023-03-27T23:36:25.203Z,5.05
2023-03-27T23:38:53.278Z,4.87
2023-03-27T23:41:19.661Z,4.87
2023-03-27T23:42:29.452Z,5.42
2023-03-27T23:44:54.342Z,4.43
2023-03-27T23:47:24.194Z,4.45
2023-03-27T23:48:33.722Z,4.80
2023-03-27T23:49:42.924Z,5.13
2023-03-27T23:50:51.599Z,4.87
2023-03-27T23:53:18.020Z,5.05
2023-03-27T23:55:43.147Z,4.47
2023-03-27T23:58:07.065Z,4.48
2023-03-27T23:59:15.686Z,4.60
